sensor_id;sensor_type;location;lat;lon;timestamp;P1;durP1;ratioP1;P2;durP2;ratioP2
68614;SDS011;55593;51.994;5.882;2022-12-11T00:00:39;85.38;;;24.63;;
68614;SDS011;55593;51.994;5.882;2022-12-11T00:03:11;89.65;;;30.17;;
68614;SDS011;55593;51.994;5.882;2022-12-11T00:05:40;86.88;;;27.15;;
68614;SDS011;55593;51.994;5.882;2022-12-11T00:08:10;86.80;;;27.48;;
68614;SDS011;55593;51.994;5.882;2022-12-11T00:10:45;84.05;;;26.02;;
68614;SDS011;55593;51.994;5.882;2022-12-11T00:13:15;98.72;;;29.38;;
68614;SDS011;55593;51.994;5.882;2022-12-11T00:15:44;74.18;;;26.23;;
68614;SDS011;55593;51.994;5.882;2022-12-11T00:18:16;92.18;;;26.70;;
68614;SDS011;55593;51.994;5.882;2022-12-11T00:20:45;118.50;;;28.13;;
68614;SDS011;55593;51.994;5.882;2022-12-11T00:23:14;97.25;;;26.75;;
68614;SDS011;55593;51.994;5.882;2022-12-11T00:25:44;110.07;;;27.75;;
68614;SDS011;55593;51.994;5.882;2022-12-11T00:28:16;108.25;;;28.58;;
68614;SDS011;55593;51.994;5.882;2022-12-11T00:30:46;83.35;;;27.58;;
68614;SDS011;55593;51.994;5.882;2022-12-11T00:33:18;89.28;;;26.65;;
68614;SDS011;55593;51.994;5.882;2022-12-11T00:35:47;85.03;;;26.63;;
68614;SDS011;55593;51.994;5.882;2022-12-11T00:38:17;80.88;;;24.55;;
68614;SDS011;55593;51.994;5.882;2022-12-11T00:40:47;85.30;;;25.60;;
68614;SDS011;55593;51.994;5.882;2022-12-11T00:43:16;82.60;;;24.90;;
68614;SDS011;55593;51.994;5.882;2022-12-11T00:45:46;85.43;;;26.92;;
68614;SDS011;55593;51.994;5.882;2022-12-11T00:48:18;81.47;;;26.70;;
68614;SDS011;55593;51.994;5.882;2022-12-11T00:50:47;75.38;;;24.67;;
68614;SDS011;55593;51.994;5.882;2022-12-11T00:53:16;76.68;;;24.40;;
68614;SDS011;55593;51.994;5.882;2022-12-11T00:55:45;78.78;;;25.35;;
68614;SDS011;55593;51.994;5.882;2022-12-11T00:58:14;91.18;;;27.08;;
68614;SDS011;55593;51.994;5.882;2022-12-11T01:00:44;85.00;;;26.67;;
68614;SDS011;55593;51.994;5.882;2022-12-11T01:03:18;79.72;;;27.30;;
68614;SDS011;55593;51.994;5.882;2022-12-11T01:05:50;85.32;;;28.42;;
68614;SDS011;55593;51.994;5.882;2022-12-11T01:08:20;89.00;;;26.83;;
68614;SDS011;55593;51.994;5.882;2022-12-11T01:10:49;81.05;;;26.90;;
68614;SDS011;55593;51.994;5.882;2022-12-11T01:13:16;86.90;;;28.52;;
68614;SDS011;55593;51.994;5.882;2022-12-11T01:15:45;82.65;;;28.52;;
68614;SDS011;55593;51.994;5.882;2022-12-11T01:18:14;81.78;;;25.80;;
68614;SDS011;55593;51.994;5.882;2022-12-11T01:20:46;79.28;;;26.40;;
68614;SDS011;55593;51.994;5.882;2022-12-11T01:23:18;76.43;;;25.15;;
68614;SDS011;55593;51.994;5.882;2022-12-11T01:25:47;77.93;;;25.77;;
68614;SDS011;55593;51.994;5.882;2022-12-11T01:28:16;79.55;;;24.83;;
68614;SDS011;55593;51.994;5.882;2022-12-11T01:30:45;78.47;;;26.20;;
68614;SDS011;55593;51.994;5.882;2022-12-11T01:33:14;97.03;;;28.77;;
68614;SDS011;55593;51.994;5.882;2022-12-11T01:35:46;87.55;;;29.25;;
68614;SDS011;55593;51.994;5.882;2022-12-11T01:38:15;76.95;;;25.05;;
68614;SDS011;55593;51.994;5.882;2022-12-11T01:40:45;83.38;;;28.50;;
68614;SDS011;55593;51.994;5.882;2022-12-11T01:43:14;84.28;;;26.27;;
68614;SDS011;55593;51.994;5.882;2022-12-11T01:45:44;84.20;;;28.25;;
68614;SDS011;55593;51.994;5.882;2022-12-11T01:48:15;90.20;;;29.42;;
68614;SDS011;55593;51.994;5.882;2022-12-11T01:50:49;87.18;;;26.35;;
68614;SDS011;55593;51.994;5.882;2022-12-11T01:53:21;85.75;;;25.90;;
68614;SDS011;55593;51.994;5.882;2022-12-11T01:55:53;103.03;;;26.20;;
68614;SDS011;55593;51.994;5.882;2022-12-11T01:58:28;86.00;;;25.63;;
68614;SDS011;55593;51.994;5.882;2022-12-11T02:01:00;95.28;;;26.67;;
68614;SDS011;55593;51.994;5.882;2022-12-11T02:03:29;83.30;;;26.17;;
68614;SDS011;55593;51.994;5.882;2022-12-11T02:06:01;233.85;;;31.00;;
68614;SDS011;55593;51.994;5.882;2022-12-11T02:08:30;116.43;;;27.42;;
68614;SDS011;55593;51.994;5.882;2022-12-11T02:11:02;80.93;;;26.15;;
68614;SDS011;55593;51.994;5.882;2022-12-11T02:13:36;78.18;;;25.88;;
68614;SDS011;55593;51.994;5.882;2022-12-11T02:16:13;76.47;;;25.08;;
68614;SDS011;55593;51.994;5.882;2022-12-11T02:18:47;83.43;;;24.85;;
68614;SDS011;55593;51.994;5.882;2022-12-11T02:21:25;103.78;;;28.83;;
68614;SDS011;55593;51.994;5.882;2022-12-11T02:24:04;88.53;;;26.17;;
68614;SDS011;55593;51.994;5.882;2022-12-11T02:29:40;83.50;;;25.13;;
68614;SDS011;55593;51.994;5.882;2022-12-11T02:32:13;107.43;;;24.67;;
68614;SDS011;55593;51.994;5.882;2022-12-11T02:34:45;135.57;;;27.40;;
68614;SDS011;55593;51.994;5.882;2022-12-11T02:37:17;111.88;;;25.58;;
68614;SDS011;55593;51.994;5.882;2022-12-11T02:39:48;85.60;;;24.00;;
68614;SDS011;55593;51.994;5.882;2022-12-11T02:42:18;108.53;;;28.70;;
68614;SDS011;55593;51.994;5.882;2022-12-11T02:44:50;89.90;;;27.33;;
68614;SDS011;55593;51.994;5.882;2022-12-11T02:47:21;156.23;;;26.90;;
68614;SDS011;55593;51.994;5.882;2022-12-11T02:49:51;94.15;;;29.27;;
68614;SDS011;55593;51.994;5.882;2022-12-11T02:52:21;90.78;;;26.38;;
68614;SDS011;55593;51.994;5.882;2022-12-11T02:54:52;108.53;;;27.75;;
68614;SDS011;55593;51.994;5.882;2022-12-11T02:57:24;100.20;;;26.27;;
68614;SDS011;55593;51.994;5.882;2022-12-11T02:59:58;178.25;;;27.33;;
68614;SDS011;55593;51.994;5.882;2022-12-11T03:02:27;93.50;;;28.80;;
68614;SDS011;55593;51.994;5.882;2022-12-11T03:04:56;237.15;;;31.52;;
68614;SDS011;55593;51.994;5.882;2022-12-11T03:07:26;102.88;;;26.35;;
68614;SDS011;55593;51.994;5.882;2022-12-11T03:09:57;103.18;;;27.02;;
68614;SDS011;55593;51.994;5.882;2022-12-11T03:12:27;179.82;;;28.75;;
68614;SDS011;55593;51.994;5.882;2022-12-11T03:15:01;86.88;;;25.25;;
68614;SDS011;55593;51.994;5.882;2022-12-11T03:17:34;293.88;;;36.67;;
68614;SDS011;55593;51.994;5.882;2022-12-11T03:20:09;87.05;;;27.45;;
68614;SDS011;55593;51.994;5.882;2022-12-11T03:22:42;104.32;;;26.13;;
68614;SDS011;55593;51.994;5.882;2022-12-11T03:25:14;101.68;;;28.08;;
68614;SDS011;55593;51.994;5.882;2022-12-11T03:27:46;147.05;;;31.13;;
68614;SDS011;55593;51.994;5.882;2022-12-11T03:30:21;158.63;;;31.27;;
68614;SDS011;55593;51.994;5.882;2022-12-11T03:32:54;139.77;;;29.25;;
68614;SDS011;55593;51.994;5.882;2022-12-11T03:35:26;107.35;;;30.13;;
68614;SDS011;55593;51.994;5.882;2022-12-11T03:38:00;93.28;;;28.42;;
68614;SDS011;55593;51.994;5.882;2022-12-11T03:40:31;114.32;;;30.00;;
68614;SDS011;55593;51.994;5.882;2022-12-11T03:43:01;92.90;;;28.75;;
68614;SDS011;55593;51.994;5.882;2022-12-11T03:45:34;116.18;;;29.77;;
68614;SDS011;55593;51.994;5.882;2022-12-11T03:48:05;89.72;;;28.27;;
68614;SDS011;55593;51.994;5.882;2022-12-11T03:50:37;96.97;;;29.98;;
68614;SDS011;55593;51.994;5.882;2022-12-11T03:53:07;91.75;;;29.05;;
68614;SDS011;55593;51.994;5.882;2022-12-11T03:55:36;111.40;;;32.08;;
68614;SDS011;55593;51.994;5.882;2022-12-11T03:58:06;92.97;;;29.58;;
68614;SDS011;55593;51.994;5.882;2022-12-11T04:00:38;179.68;;;32.92;;
68614;SDS011;55593;51.994;5.882;2022-12-11T04:03:07;105.90;;;30.80;;
68614;SDS011;55593;51.994;5.882;2022-12-11T04:05:43;143.02;;;31.20;;
68614;SDS011;55593;51.994;5.882;2022-12-11T04:08:14;128.38;;;30.98;;
68614;SDS011;55593;51.994;5.882;2022-12-11T04:10:45;176.18;;;31.20;;
68614;SDS011;55593;51.994;5.882;2022-12-11T04:13:34;94.00;;;28.83;;
68614;SDS011;55593;51.994;5.882;2022-12-11T04:16:06;90.22;;;29.52;;
68614;SDS011;55593;51.994;5.882;2022-12-11T04:18:33;106.18;;;32.17;;
68614;SDS011;55593;51.994;5.882;2022-12-11T04:21:15;90.60;;;29.63;;
68614;SDS011;55593;51.994;5.882;2022-12-11T04:23:56;105.25;;;32.03;;
68614;SDS011;55593;51.994;5.882;2022-12-11T04:26:38;90.88;;;31.35;;
68614;SDS011;55593;51.994;5.882;2022-12-11T04:29:07;92.25;;;29.92;;
68614;SDS011;55593;51.994;5.882;2022-12-11T04:31:39;102.75;;;29.52;;
68614;SDS011;55593;51.994;5.882;2022-12-11T04:34:08;109.57;;;33.88;;
68614;SDS011;55593;51.994;5.882;2022-12-11T04:36:37;93.95;;;29.05;;
68614;SDS011;55593;51.994;5.882;2022-12-11T04:39:07;88.13;;;29.60;;
68614;SDS011;55593;51.994;5.882;2022-12-11T04:41:36;96.47;;;31.42;;
68614;SDS011;55593;51.994;5.882;2022-12-11T04:44:06;94.78;;;28.45;;
68614;SDS011;55593;51.994;5.882;2022-12-11T04:46:35;89.35;;;31.48;;
68614;SDS011;55593;51.994;5.882;2022-12-11T04:49:07;88.50;;;30.08;;
68614;SDS011;55593;51.994;5.882;2022-12-11T04:51:37;86.32;;;29.00;;
68614;SDS011;55593;51.994;5.882;2022-12-11T04:54:06;88.50;;;29.77;;
68614;SDS011;55593;51.994;5.882;2022-12-11T04:56:35;85.97;;;31.40;;
68614;SDS011;55593;51.994;5.882;2022-12-11T04:59:05;75.70;;;29.73;;
68614;SDS011;55593;51.994;5.882;2022-12-11T05:01:34;90.43;;;29.20;;
68614;SDS011;55593;51.994;5.882;2022-12-11T05:04:04;91.03;;;30.08;;
68614;SDS011;55593;51.994;5.882;2022-12-11T05:06:35;85.32;;;28.65;;
68614;SDS011;55593;51.994;5.882;2022-12-11T05:09:05;98.07;;;27.27;;
68614;SDS011;55593;51.994;5.882;2022-12-11T05:11:34;86.15;;;30.23;;
68614;SDS011;55593;51.994;5.882;2022-12-11T05:14:04;89.57;;;31.73;;
68614;SDS011;55593;51.994;5.882;2022-12-11T05:16:33;81.97;;;29.85;;
68614;SDS011;55593;51.994;5.882;2022-12-11T05:19:02;86.90;;;30.27;;
68614;SDS011;55593;51.994;5.882;2022-12-11T05:21:34;85.25;;;30.55;;
68614;SDS011;55593;51.994;5.882;2022-12-11T05:24:04;97.72;;;32.47;;
68614;SDS011;55593;51.994;5.882;2022-12-11T05:26:33;77.10;;;28.35;;
68614;SDS011;55593;51.994;5.882;2022-12-11T05:29:02;84.13;;;28.65;;
68614;SDS011;55593;51.994;5.882;2022-12-11T05:31:31;77.10;;;31.70;;
68614;SDS011;55593;51.994;5.882;2022-12-11T05:34:00;79.90;;;32.58;;
68614;SDS011;55593;51.994;5.882;2022-12-11T05:36:30;78.65;;;30.45;;
68614;SDS011;55593;51.994;5.882;2022-12-11T05:39:02;78.85;;;30.40;;
68614;SDS011;55593;51.994;5.882;2022-12-11T05:41:32;76.68;;;27.67;;
68614;SDS011;55593;51.994;5.882;2022-12-11T05:44:01;64.82;;;29.05;;
68614;SDS011;55593;51.994;5.882;2022-12-11T05:46:30;76.47;;;31.13;;
68614;SDS011;55593;51.994;5.882;2022-12-11T05:49:00;67.88;;;29.88;;
68614;SDS011;55593;51.994;5.882;2022-12-11T05:51:30;70.82;;;29.58;;
68614;SDS011;55593;51.994;5.882;2022-12-11T05:54:02;71.85;;;31.23;;
68614;SDS011;55593;51.994;5.882;2022-12-11T05:56:32;78.03;;;30.52;;
68614;SDS011;55593;51.994;5.882;2022-12-11T05:59:02;65.00;;;28.52;;
68614;SDS011;55593;51.994;5.882;2022-12-11T06:01:33;70.93;;;29.83;;
68614;SDS011;55593;51.994;5.882;2022-12-11T06:04:04;82.78;;;32.55;;
68614;SDS011;55593;51.994;5.882;2022-12-11T06:06:34;83.97;;;31.20;;
68614;SDS011;55593;51.994;5.882;2022-12-11T06:09:06;76.07;;;28.75;;
68614;SDS011;55593;51.994;5.882;2022-12-11T06:11:35;68.55;;;28.15;;
68614;SDS011;55593;51.994;5.882;2022-12-11T06:14:04;70.45;;;28.65;;
68614;SDS011;55593;51.994;5.882;2022-12-11T06:16:33;69.50;;;29.02;;
68614;SDS011;55593;51.994;5.882;2022-12-11T06:19:02;71.18;;;30.05;;
68614;SDS011;55593;51.994;5.882;2022-12-11T06:21:32;70.15;;;30.38;;
68614;SDS011;55593;51.994;5.882;2022-12-11T06:24:02;61.40;;;28.13;;
68614;SDS011;55593;51.994;5.882;2022-12-11T06:26:34;65.05;;;28.15;;
68614;SDS011;55593;51.994;5.882;2022-12-11T06:29:04;62.67;;;28.08;;
68614;SDS011;55593;51.994;5.882;2022-12-11T06:31:33;61.92;;;29.17;;
68614;SDS011;55593;51.994;5.882;2022-12-11T06:34:02;68.28;;;27.95;;
68614;SDS011;55593;51.994;5.882;2022-12-11T06:36:31;59.28;;;28.42;;
68614;SDS011;55593;51.994;5.882;2022-12-11T06:39:00;57.28;;;27.10;;
68614;SDS011;55593;51.994;5.882;2022-12-11T06:41:29;64.13;;;28.40;;
68614;SDS011;55593;51.994;5.882;2022-12-11T06:44:01;52.03;;;26.13;;
68614;SDS011;55593;51.994;5.882;2022-12-11T06:46:30;60.78;;;28.42;;
68614;SDS011;55593;51.994;5.882;2022-12-11T06:49:00;56.05;;;25.33;;
68614;SDS011;55593;51.994;5.882;2022-12-11T06:51:29;54.63;;;25.88;;
68614;SDS011;55593;51.994;5.882;2022-12-11T06:53:58;54.85;;;26.10;;
68614;SDS011;55593;51.994;5.882;2022-12-11T06:56:27;50.42;;;25.10;;
68614;SDS011;55593;51.994;5.882;2022-12-11T06:58:57;48.17;;;24.10;;
68614;SDS011;55593;51.994;5.882;2022-12-11T07:01:28;51.58;;;23.88;;
68614;SDS011;55593;51.994;5.882;2022-12-11T07:03:58;48.90;;;23.73;;
68614;SDS011;55593;51.994;5.882;2022-12-11T07:06:28;46.45;;;22.15;;
68614;SDS011;55593;51.994;5.882;2022-12-11T07:08:57;46.28;;;22.70;;
68614;SDS011;55593;51.994;5.882;2022-12-11T07:11:26;47.97;;;23.85;;
68614;SDS011;55593;51.994;5.882;2022-12-11T07:13:56;45.95;;;22.40;;
68614;SDS011;55593;51.994;5.882;2022-12-11T07:16:28;44.45;;;22.88;;
68614;SDS011;55593;51.994;5.882;2022-12-11T07:18:58;50.17;;;23.13;;
68614;SDS011;55593;51.994;5.882;2022-12-11T07:21:27;47.83;;;24.48;;
68614;SDS011;55593;51.994;5.882;2022-12-11T07:23:57;44.85;;;22.45;;
68614;SDS011;55593;51.994;5.882;2022-12-11T07:26:26;48.75;;;24.05;;
68614;SDS011;55593;51.994;5.882;2022-12-11T07:28:55;47.72;;;23.40;;
68614;SDS011;55593;51.994;5.882;2022-12-11T07:31:26;44.60;;;23.35;;
68614;SDS011;55593;51.994;5.882;2022-12-11T07:33:58;47.42;;;22.25;;
68614;SDS011;55593;51.994;5.882;2022-12-11T07:36:29;40.78;;;20.85;;
68614;SDS011;55593;51.994;5.882;2022-12-11T07:38:58;41.80;;;21.08;;
68614;SDS011;55593;51.994;5.882;2022-12-11T07:41:28;37.10;;;20.10;;
68614;SDS011;55593;51.994;5.882;2022-12-11T07:43:58;38.17;;;20.67;;
68614;SDS011;55593;51.994;5.882;2022-12-11T07:46:31;40.33;;;21.50;;
68614;SDS011;55593;51.994;5.882;2022-12-11T07:49:01;35.58;;;19.42;;
68614;SDS011;55593;51.994;5.882;2022-12-11T07:51:30;42.28;;;20.13;;
68614;SDS011;55593;51.994;5.882;2022-12-11T07:54:01;44.53;;;22.25;;
68614;SDS011;55593;51.994;5.882;2022-12-11T07:56:32;37.63;;;20.63;;
68614;SDS011;55593;51.994;5.882;2022-12-11T07:59:03;40.80;;;21.58;;
68614;SDS011;55593;51.994;5.882;2022-12-11T08:01:36;42.30;;;20.67;;
68614;SDS011;55593;51.994;5.882;2022-12-11T08:04:07;39.95;;;20.48;;
68614;SDS011;55593;51.994;5.882;2022-12-11T08:06:40;39.85;;;21.85;;
68614;SDS011;55593;51.994;5.882;2022-12-11T08:09:11;42.08;;;19.92;;
68614;SDS011;55593;51.994;5.882;2022-12-11T08:11:42;36.90;;;20.77;;
68614;SDS011;55593;51.994;5.882;2022-12-11T08:14:11;37.15;;;19.02;;
68614;SDS011;55593;51.994;5.882;2022-12-11T08:16:44;41.72;;;20.48;;
68614;SDS011;55593;51.994;5.882;2022-12-11T08:19:14;39.55;;;20.58;;
68614;SDS011;55593;51.994;5.882;2022-12-11T08:21:43;36.40;;;20.30;;
68614;SDS011;55593;51.994;5.882;2022-12-11T08:24:13;36.03;;;19.30;;
68614;SDS011;55593;51.994;5.882;2022-12-11T08:26:45;37.67;;;18.27;;
68614;SDS011;55593;51.994;5.882;2022-12-11T08:29:15;36.97;;;18.33;;
68614;SDS011;55593;51.994;5.882;2022-12-11T08:31:46;31.02;;;17.50;;
68614;SDS011;55593;51.994;5.882;2022-12-11T08:34:15;32.22;;;17.92;;
68614;SDS011;55593;51.994;5.882;2022-12-11T08:36:44;33.40;;;18.00;;
68614;SDS011;55593;51.994;5.882;2022-12-11T08:39:14;34.83;;;16.20;;
68614;SDS011;55593;51.994;5.882;2022-12-11T08:41:43;29.38;;;15.35;;
68614;SDS011;55593;51.994;5.882;2022-12-11T08:44:12;29.08;;;15.95;;
68614;SDS011;55593;51.994;5.882;2022-12-11T08:46:41;31.70;;;16.40;;
68614;SDS011;55593;51.994;5.882;2022-12-11T08:49:13;31.13;;;15.82;;
68614;SDS011;55593;51.994;5.882;2022-12-11T08:51:42;32.05;;;16.48;;
68614;SDS011;55593;51.994;5.882;2022-12-11T08:54:11;34.92;;;16.38;;
68614;SDS011;55593;51.994;5.882;2022-12-11T08:56:40;31.02;;;16.73;;
68614;SDS011;55593;51.994;5.882;2022-12-11T08:59:10;29.70;;;15.50;;
68614;SDS011;55593;51.994;5.882;2022-12-11T09:01:39;30.33;;;16.08;;
68614;SDS011;55593;51.994;5.882;2022-12-11T09:04:08;30.65;;;16.98;;
68614;SDS011;55593;51.994;5.882;2022-12-11T09:06:40;28.60;;;15.65;;
68614;SDS011;55593;51.994;5.882;2022-12-11T09:09:09;29.30;;;16.45;;
68614;SDS011;55593;51.994;5.882;2022-12-11T09:11:38;28.60;;;16.25;;
68614;SDS011;55593;51.994;5.882;2022-12-11T09:14:07;28.60;;;15.60;;
68614;SDS011;55593;51.994;5.882;2022-12-11T09:16:38;30.27;;;16.23;;
68614;SDS011;55593;51.994;5.882;2022-12-11T09:19:09;31.00;;;17.42;;
68614;SDS011;55593;51.994;5.882;2022-12-11T09:21:43;32.13;;;17.10;;
68614;SDS011;55593;51.994;5.882;2022-12-11T09:24:12;44.03;;;18.48;;
68614;SDS011;55593;51.994;5.882;2022-12-11T09:26:42;28.75;;;16.10;;
68614;SDS011;55593;51.994;5.882;2022-12-11T09:29:12;33.28;;;16.55;;
68614;SDS011;55593;51.994;5.882;2022-12-11T09:31:41;29.55;;;16.30;;
68614;SDS011;55593;51.994;5.882;2022-12-11T09:34:11;33.83;;;17.10;;
68614;SDS011;55593;51.994;5.882;2022-12-11T09:36:44;27.90;;;16.10;;
68614;SDS011;55593;51.994;5.882;2022-12-11T09:39:13;28.20;;;16.05;;
68614;SDS011;55593;51.994;5.882;2022-12-11T09:41:45;32.60;;;16.67;;
68614;SDS011;55593;51.994;5.882;2022-12-11T09:44:19;33.45;;;17.05;;
68614;SDS011;55593;51.994;5.882;2022-12-11T09:46:52;34.92;;;17.88;;
68614;SDS011;55593;51.994;5.882;2022-12-11T09:49:23;33.00;;;17.60;;
68614;SDS011;55593;51.994;5.882;2022-12-11T09:52:01;31.77;;;17.40;;
68614;SDS011;55593;51.994;5.882;2022-12-11T09:54:36;34.50;;;18.67;;
68614;SDS011;55593;51.994;5.882;2022-12-11T09:57:09;30.98;;;17.30;;
68614;SDS011;55593;51.994;5.882;2022-12-11T09:59:49;33.45;;;18.02;;
68614;SDS011;55593;51.994;5.882;2022-12-11T10:02:29;31.45;;;17.88;;
68614;SDS011;55593;51.994;5.882;2022-12-11T10:05:11;33.20;;;18.02;;
68614;SDS011;55593;51.994;5.882;2022-12-11T10:07:47;35.57;;;18.23;;
68614;SDS011;55593;51.994;5.882;2022-12-11T10:10:21;34.28;;;18.45;;
68614;SDS011;55593;51.994;5.882;2022-12-11T10:13:02;34.78;;;16.98;;
68614;SDS011;55593;51.994;5.882;2022-12-11T10:15:34;36.28;;;16.80;;
68614;SDS011;55593;51.994;5.882;2022-12-11T10:18:08;29.05;;;17.30;;
68614;SDS011;55593;51.994;5.882;2022-12-11T10:20:39;30.58;;;16.38;;
68614;SDS011;55593;51.994;5.882;2022-12-11T10:23:16;27.27;;;16.13;;
68614;SDS011;55593;51.994;5.882;2022-12-11T10:25:47;31.20;;;17.02;;
68614;SDS011;55593;51.994;5.882;2022-12-11T10:28:19;31.60;;;18.13;;
68614;SDS011;55593;51.994;5.882;2022-12-11T10:30:50;30.08;;;17.20;;
68614;SDS011;55593;51.994;5.882;2022-12-11T10:33:25;32.35;;;18.35;;
68614;SDS011;55593;51.994;5.882;2022-12-11T10:36:00;32.15;;;18.65;;
68614;SDS011;55593;51.994;5.882;2022-12-11T10:38:32;32.30;;;18.40;;
68614;SDS011;55593;51.994;5.882;2022-12-11T10:41:02;32.72;;;17.70;;
68614;SDS011;55593;51.994;5.882;2022-12-11T10:43:33;33.45;;;18.27;;
68614;SDS011;55593;51.994;5.882;2022-12-11T10:46:03;29.77;;;17.80;;
68614;SDS011;55593;51.994;5.882;2022-12-11T10:48:34;34.60;;;18.83;;
68614;SDS011;55593;51.994;5.882;2022-12-11T10:51:04;34.55;;;18.95;;
68614;SDS011;55593;51.994;5.882;2022-12-11T10:53:36;32.92;;;17.83;;
68614;SDS011;55593;51.994;5.882;2022-12-11T10:56:08;36.03;;;19.15;;
68614;SDS011;55593;51.994;5.882;2022-12-11T10:58:38;38.58;;;19.20;;
68614;SDS011;55593;51.994;5.882;2022-12-11T11:01:14;31.98;;;18.23;;
68614;SDS011;55593;51.994;5.882;2022-12-11T11:03:53;33.72;;;19.10;;
68614;SDS011;55593;51.994;5.882;2022-12-11T11:06:24;32.28;;;19.17;;
68614;SDS011;55593;51.994;5.882;2022-12-11T11:08:57;35.40;;;18.80;;
68614;SDS011;55593;51.994;5.882;2022-12-11T11:11:28;33.88;;;19.30;;
68614;SDS011;55593;51.994;5.882;2022-12-11T11:14:03;31.95;;;19.08;;
68614;SDS011;55593;51.994;5.882;2022-12-11T11:16:34;34.50;;;19.00;;
68614;SDS011;55593;51.994;5.882;2022-12-11T11:19:04;32.95;;;19.15;;
68614;SDS011;55593;51.994;5.882;2022-12-11T11:21:34;31.70;;;18.55;;
68614;SDS011;55593;51.994;5.882;2022-12-11T11:24:18;33.25;;;18.83;;
68614;SDS011;55593;51.994;5.882;2022-12-11T11:26:55;33.88;;;19.73;;
68614;SDS011;55593;51.994;5.882;2022-12-11T11:29:27;32.85;;;19.77;;
68614;SDS011;55593;51.994;5.882;2022-12-11T11:31:58;37.20;;;20.42;;
68614;SDS011;55593;51.994;5.882;2022-12-11T11:34:40;38.28;;;21.10;;
68614;SDS011;55593;51.994;5.882;2022-12-11T11:37:21;36.65;;;21.67;;
68614;SDS011;55593;51.994;5.882;2022-12-11T11:39:55;33.83;;;20.52;;
68614;SDS011;55593;51.994;5.882;2022-12-11T11:42:29;35.58;;;20.52;;
68614;SDS011;55593;51.994;5.882;2022-12-11T11:45:04;35.90;;;19.65;;
68614;SDS011;55593;51.994;5.882;2022-12-11T11:47:39;37.25;;;21.38;;
68614;SDS011;55593;51.994;5.882;2022-12-11T11:50:11;35.45;;;21.65;;
68614;SDS011;55593;51.994;5.882;2022-12-11T11:52:45;36.90;;;22.05;;
68614;SDS011;55593;51.994;5.882;2022-12-11T11:55:32;38.25;;;21.60;;
68614;SDS011;55593;51.994;5.882;2022-12-11T11:58:08;35.65;;;20.55;;
68614;SDS011;55593;51.994;5.882;2022-12-11T12:00:41;35.05;;;20.50;;
68614;SDS011;55593;51.994;5.882;2022-12-11T12:03:11;37.90;;;21.73;;
68614;SDS011;55593;51.994;5.882;2022-12-11T12:05:44;39.10;;;21.20;;
68614;SDS011;55593;51.994;5.882;2022-12-11T12:10:54;33.63;;;20.33;;
68614;SDS011;55593;51.994;5.882;2022-12-11T12:13:28;38.70;;;21.50;;
68614;SDS011;55593;51.994;5.882;2022-12-11T12:16:02;36.53;;;20.40;;
68614;SDS011;55593;51.994;5.882;2022-12-11T12:18:33;45.35;;;21.02;;
68614;SDS011;55593;51.994;5.882;2022-12-11T12:21:13;34.97;;;19.50;;
68614;SDS011;55593;51.994;5.882;2022-12-11T12:23:54;37.20;;;21.80;;
68614;SDS011;55593;51.994;5.882;2022-12-11T12:26:34;33.08;;;19.42;;
68614;SDS011;55593;51.994;5.882;2022-12-11T12:29:08;31.95;;;18.58;;
68614;SDS011;55593;51.994;5.882;2022-12-11T12:31:48;34.88;;;20.15;;
68614;SDS011;55593;51.994;5.882;2022-12-11T12:34:24;39.05;;;20.30;;
68614;SDS011;55593;51.994;5.882;2022-12-11T12:37:02;33.42;;;19.35;;
68614;SDS011;55593;51.994;5.882;2022-12-11T12:39:40;36.53;;;19.90;;
68614;SDS011;55593;51.994;5.882;2022-12-11T12:42:18;35.95;;;20.40;;
68614;SDS011;55593;51.994;5.882;2022-12-11T12:44:57;35.08;;;19.48;;
68614;SDS011;55593;51.994;5.882;2022-12-11T12:47:27;35.53;;;20.13;;
68614;SDS011;55593;51.994;5.882;2022-12-11T12:50:00;40.17;;;19.83;;
68614;SDS011;55593;51.994;5.882;2022-12-11T12:52:31;36.03;;;20.00;;
68614;SDS011;55593;51.994;5.882;2022-12-11T12:55:04;37.85;;;20.35;;
68614;SDS011;55593;51.994;5.882;2022-12-11T12:57:50;33.65;;;18.73;;
68614;SDS011;55593;51.994;5.882;2022-12-11T13:00:29;34.13;;;18.63;;
68614;SDS011;55593;51.994;5.882;2022-12-11T13:03:00;36.15;;;19.25;;
68614;SDS011;55593;51.994;5.882;2022-12-11T13:05:31;38.25;;;20.58;;
68614;SDS011;55593;51.994;5.882;2022-12-11T13:08:03;39.22;;;20.65;;
68614;SDS011;55593;51.994;5.882;2022-12-11T13:10:33;34.35;;;19.20;;
68614;SDS011;55593;51.994;5.882;2022-12-11T13:18:54;25.83;;;13.50;;
68614;SDS011;55593;51.994;5.882;2022-12-11T13:21:25;36.17;;;19.90;;
68614;SDS011;55593;51.994;5.882;2022-12-11T13:24:09;43.30;;;23.23;;
68614;SDS011;55593;51.994;5.882;2022-12-11T13:26:41;38.42;;;19.77;;
68614;SDS011;55593;51.994;5.882;2022-12-11T13:29:29;35.25;;;19.83;;
68614;SDS011;55593;51.994;5.882;2022-12-11T13:32:01;37.00;;;19.10;;
68614;SDS011;55593;51.994;5.882;2022-12-11T13:34:33;38.83;;;21.02;;
68614;SDS011;55593;51.994;5.882;2022-12-11T13:37:05;37.28;;;21.70;;
68614;SDS011;55593;51.994;5.882;2022-12-11T13:39:36;38.38;;;21.25;;
68614;SDS011;55593;51.994;5.882;2022-12-11T13:42:06;38.30;;;20.52;;
68614;SDS011;55593;51.994;5.882;2022-12-11T13:44:47;37.05;;;20.83;;
68614;SDS011;55593;51.994;5.882;2022-12-11T13:47:17;37.75;;;20.90;;
68614;SDS011;55593;51.994;5.882;2022-12-11T13:49:48;35.80;;;20.70;;
68614;SDS011;55593;51.994;5.882;2022-12-11T13:52:24;36.08;;;20.52;;
68614;SDS011;55593;51.994;5.882;2022-12-11T13:54:54;38.85;;;20.52;;
68614;SDS011;55593;51.994;5.882;2022-12-11T13:57:26;41.17;;;20.30;;
68614;SDS011;55593;51.994;5.882;2022-12-11T14:00:01;38.38;;;20.58;;
68614;SDS011;55593;51.994;5.882;2022-12-11T14:02:31;36.38;;;21.15;;
68614;SDS011;55593;51.994;5.882;2022-12-11T14:05:03;40.58;;;22.50;;
68614;SDS011;55593;51.994;5.882;2022-12-11T14:07:35;38.75;;;21.50;;
68614;SDS011;55593;51.994;5.882;2022-12-11T14:10:06;38.95;;;20.77;;
68614;SDS011;55593;51.994;5.882;2022-12-11T14:12:42;26.52;;;15.15;;
68614;SDS011;55593;51.994;5.882;2022-12-11T14:15:16;37.17;;;19.98;;
68614;SDS011;55593;51.994;5.882;2022-12-11T14:17:46;37.17;;;20.08;;
68614;SDS011;55593;51.994;5.882;2022-12-11T14:20:16;33.78;;;20.95;;
68614;SDS011;55593;51.994;5.882;2022-12-11T14:22:47;41.38;;;21.98;;
68614;SDS011;55593;51.994;5.882;2022-12-11T14:25:20;40.97;;;21.75;;
68614;SDS011;55593;51.994;5.882;2022-12-11T14:27:51;36.83;;;20.98;;
68614;SDS011;55593;51.994;5.882;2022-12-11T14:30:25;38.33;;;20.42;;
68614;SDS011;55593;51.994;5.882;2022-12-11T14:32:56;36.78;;;20.63;;
68614;SDS011;55593;51.994;5.882;2022-12-11T14:35:27;35.90;;;19.88;;
68614;SDS011;55593;51.994;5.882;2022-12-11T14:37:59;30.25;;;18.83;;
68614;SDS011;55593;51.994;5.882;2022-12-11T14:40:33;38.95;;;20.02;;
68614;SDS011;55593;51.994;5.882;2022-12-11T14:43:06;32.35;;;19.20;;
68614;SDS011;55593;51.994;5.882;2022-12-11T14:45:40;35.60;;;19.73;;
68614;SDS011;55593;51.994;5.882;2022-12-11T14:48:12;33.28;;;19.27;;
68614;SDS011;55593;51.994;5.882;2022-12-11T14:50:46;34.97;;;19.65;;
68614;SDS011;55593;51.994;5.882;2022-12-11T14:53:18;35.47;;;20.92;;
68614;SDS011;55593;51.994;5.882;2022-12-11T14:55:49;32.53;;;18.60;;
68614;SDS011;55593;51.994;5.882;2022-12-11T14:58:19;36.00;;;20.58;;